Time;durP1;ratioP1;P1;durP2;ratioP2;P2;SDS_P1;SDS_P2;PMS_P1;PMS_P2;Temp;Humidity;BMP_temperature;BMP_pressure;BME280_temperature;BME280_humidity;BME280_pressure;Samples;Min_cycle;Max_cycle;Signal;HPM_P1;HPM_P2
2022/10/29 00:00:36;;;;;;;8.32;4.20;;;18.50;63.60;;;;;;10438443;28;20049;-60
2022/10/29 00:05:37;;;;;;;5.45;3.25;;;18.40;63.30;;;;;;10478686;28;20025;-60
2022/10/29 00:10:38;;;;;;;5.35;3.03;;;18.50;63.40;;;;;;10452688;28;20516;-60
2022/10/29 00:15:41;;;;;;;5.97;2.75;;;18.40;63.20;;;;;;10475206;28;20140;-60
2022/10/29 00:20:42;;;;;;;7.03;3.75;;;18.40;63.10;;;;;;10462177;28;20025;-60
2022/10/29 00:25:43;;;;;;;6.80;3.88;;;18.40;63.00;;;;;;10466837;28;20043;-60
2022/10/29 00:30:43;;;;;;;6.47;3.88;;;18.40;62.90;;;;;;10462864;28;20102;-59
2022/10/29 00:35:58;;;;;;;5.22;3.25;;;18.40;62.80;;;;;;10474962;28;20055;-60
2022/10/29 00:41:00;;;;;;;5.20;3.05;;;18.40;62.70;;;;;;10492751;28;20025;-60
2022/10/29 00:46:11;;;;;;;4.32;3.38;;;18.40;62.70;;;;;;10457684;28;20502;-59
2022/10/29 00:51:14;;;;;;;5.75;3.22;;;18.40;62.50;;;;;;10504396;28;20028;-59
2022/10/29 00:56:16;;;;;;;6.45;2.83;;;18.40;62.40;;;;;;10474314;28;20428;-60
2022/10/29 01:01:16;;;;;;;5.78;2.80;;;18.40;62.30;;;;;;10460404;28;20017;-60
2022/10/29 01:06:17;;;;;;;4.93;2.55;;;18.40;62.20;;;;;;10489968;28;20020;-59
2022/10/29 01:11:56;;;;;;;4.95;2.50;;;18.40;62.10;;;;;;10489793;28;20097;-60
2022/10/29 01:17:18;;;;;;;5.38;3.05;;;18.40;62.00;;;;;;10490951;28;20016;-59
2022/10/29 01:23:23;;;;;;;6.00;2.67;;;18.40;61.90;;;;;;10489758;28;20036;-60
2022/10/29 01:29:13;;;;;;;4.80;2.72;;;18.40;61.90;;;;;;10361359;28;20599;-60
2022/10/29 01:35:18;;;;;;;5.05;3.45;;;18.40;61.70;;;;;;10470451;28;20055;-59
2022/10/29 01:40:36;;;;;;;4.68;2.90;;;18.40;61.60;;;;;;10369652;28;20033;-60
2022/10/29 01:45:55;;;;;;;5.72;2.72;;;18.40;61.50;;;;;;10481874;28;20024;-59
2022/10/29 01:51:01;;;;;;;8.32;3.20;;;18.40;61.40;;;;;;10463677;28;20144;-60
2022/10/29 01:56:02;;;;;;;5.40;2.58;;;18.40;61.40;;;;;;10485262;28;20028;-59
2022/10/29 02:01:43;;;;;;;4.95;2.22;;;18.40;61.20;;;;;;10474477;28;20641;-59
2022/10/29 02:06:58;;;;;;;;;;;18.40;61.20;;;;;;10467135;28;20024;-59
2022/10/29 02:12:22;;;;;;;7.60;2.97;;;18.40;61.20;;;;;;10464044;28;19912;-59
2022/10/29 02:17:23;;;;;;;4.28;2.25;;;18.40;61.10;;;;;;10469675;28;20040;-60
2022/10/29 02:22:24;;;;;;;3.83;2.63;;;18.30;60.90;;;;;;10456126;28;20017;-59
2022/10/29 02:27:25;;;;;;;4.82;2.70;;;18.30;60.90;;;;;;10462726;28;20037;-60
2022/10/29 02:32:26;;;;;;;4.07;2.55;;;18.40;60.80;;;;;;10486893;28;20060;-59
2022/10/29 02:37:27;;;;;;;3.92;2.47;;;18.40;60.80;;;;;;10487173;28;20636;-60
2022/10/29 02:42:28;;;;;;;7.90;3.78;;;18.40;60.70;;;;;;10483838;28;20540;-60
2022/10/29 02:47:28;;;;;;;5.45;4.53;;;18.40;60.70;;;;;;10486839;28;20035;-60
2022/10/29 02:52:29;;;;;;;6.93;6.28;;;18.40;60.70;;;;;;10486755;28;20187;-60
2022/10/29 02:57:29;;;;;;;12.48;10.75;;;18.40;60.70;;;;;;10487279;28;20063;-59
2022/10/29 03:02:30;;;;;;;17.20;15.55;;;18.40;60.60;;;;;;10487866;28;20059;-60
2022/10/29 03:07:37;;;;;;;22.67;20.45;;;18.40;60.60;;;;;;10446656;28;20017;-60
2022/10/29 03:12:38;;;;;;;26.05;23.73;;;18.40;60.60;;;;;;10487666;28;20111;-59
2022/10/29 03:17:38;;;;;;;28.15;25.65;;;18.40;60.60;;;;;;10486012;28;20015;-59
2022/10/29 03:22:39;;;;;;;29.02;26.13;;;18.40;60.60;;;;;;10461217;28;20104;-59
2022/10/29 03:27:44;;;;;;;27.55;25.10;;;18.40;60.60;;;;;;10447559;28;20136;-59
2022/10/29 03:32:46;;;;;;;29.38;26.85;;;18.40;60.60;;;;;;10469013;28;20452;-60
2022/10/29 03:37:51;;;;;;;30.90;27.95;;;18.40;60.60;;;;;;10469187;28;20021;-59
2022/10/29 03:42:51;;;;;;;27.33;25.13;;;18.40;60.50;;;;;;10453016;28;20491;-60
2022/10/29 03:47:52;;;;;;;28.98;26.45;;;18.40;60.50;;;;;;10466479;28;20048;-60
2022/10/29 03:52:53;;;;;;;27.27;24.80;;;18.40;60.40;;;;;;10453379;28;20037;-59
2022/10/29 03:57:54;;;;;;;25.90;23.60;;;18.40;60.40;;;;;;10468549;28;20056;-59
2022/10/29 04:02:55;;;;;;;24.30;22.10;;;18.40;60.30;;;;;;10488519;28;20100;-60
2022/10/29 04:07:56;;;;;;;24.13;21.92;;;18.40;60.20;;;;;;10476073;28;20468;-60
2022/10/29 04:12:56;;;;;;;24.30;22.17;;;18.40;60.20;;;;;;10477031;28;20064;-59
2022/10/29 04:17:57;;;;;;;24.50;22.13;;;18.40;60.10;;;;;;10462323;28;20067;-59
2022/10/29 04:22:58;;;;;;;23.13;21.02;;;18.40;60.10;;;;;;10448837;28;20028;-59
2022/10/29 04:27:58;;;;;;;23.45;21.33;;;18.40;60.00;;;;;;10461102;28;20558;-59
2022/10/29 04:32:59;;;;;;;23.52;21.33;;;18.40;59.90;;;;;;10451681;28;20065;-60
2022/10/29 04:38:08;;;;;;;21.50;19.60;;;18.40;59.80;;;;;;10499558;28;20108;-60
2022/10/29 04:43:08;;;;;;;21.05;18.85;;;18.40;59.80;;;;;;10490828;28;20100;-59
2022/10/29 04:48:09;;;;;;;20.25;18.02;;;18.40;60.30;;;;;;10474553;28;20024;-60
2022/10/29 04:53:10;;;;;;;19.02;17.35;;;18.40;59.60;;;;;;10460705;28;20120;-60
2022/10/29 04:58:17;;;;;;;21.00;18.85;;;18.40;59.60;;;;;;10463849;28;20013;-60
2022/10/29 05:03:18;;;;;;;19.80;17.90;;;18.30;59.50;;;;;;10487194;28;20017;-59
2022/10/29 05:08:19;;;;;;;18.83;16.92;;;18.40;59.50;;;;;;10505098;28;20107;-60
2022/10/29 05:13:19;;;;;;;15.15;13.85;;;18.30;59.40;;;;;;10468978;28;20025;-60
2022/10/29 05:18:20;;;;;;;18.63;17.02;;;18.30;59.30;;;;;;10485599;28;20107;-60
2022/10/29 05:23:22;;;;;;;15.18;13.75;;;18.30;59.20;;;;;;10446659;28;20116;-60
2022/10/29 05:28:23;;;;;;;15.20;13.70;;;18.30;59.20;;;;;;10484125;28;20113;-61
2022/10/29 05:33:24;;;;;;;14.68;13.27;;;18.30;59.20;;;;;;10456366;28;20605;-61
2022/10/29 05:38:24;;;;;;;15.88;13.10;;;18.30;59.20;;;;;;10472053;28;20013;-61
2022/10/29 05:43:25;;;;;;;12.27;10.98;;;18.30;59.20;;;;;;10476085;28;20021;-62
2022/10/29 05:48:26;;;;;;;18.38;10.95;;;18.20;60.10;;;;;;10440661;28;20035;-59
2022/10/29 05:53:27;;;;;;;22.48;12.02;;;18.20;62.70;;;;;;10462597;28;20052;-60
2022/10/29 05:58:27;;;;;;;34.63;12.95;;;18.20;63.90;;;;;;10451287;28;20056;-61
2022/10/29 06:03:28;;;;;;;28.10;12.63;;;18.10;64.90;;;;;;10464879;28;20020;-61
2022/10/29 06:08:29;;;;;;;22.10;11.32;;;18.10;65.40;;;;;;10448009;28;20048;-61
2022/10/29 06:13:29;;;;;;;21.42;10.63;;;18.20;66.40;;;;;;10463040;28;20409;-60
2022/10/29 06:18:30;;;;;;;25.42;11.75;;;18.20;67.10;;;;;;10453869;28;20013;-62
2022/10/29 06:23:31;;;;;;;36.55;12.35;;;18.20;67.00;;;;;;10488538;28;20489;-59
2022/10/29 06:28:32;;;;;;;30.25;10.70;;;18.20;67.90;;;;;;10486159;28;20131;-60
2022/10/29 06:33:33;;;;;;;20.50;11.10;;;18.10;68.00;;;;;;10484996;28;20551;-61
2022/10/29 06:38:33;;;;;;;30.85;12.27;;;18.10;68.10;;;;;;10485041;28;20023;-61
2022/10/29 06:43:34;;;;;;;38.90;12.48;;;18.10;68.50;;;;;;10486440;28;20526;-62
2022/10/29 06:48:35;;;;;;;34.15;10.18;;;18.10;68.60;;;;;;10464557;28;20052;-62
2022/10/29 06:53:36;;;;;;;34.10;11.10;;;18.10;68.20;;;;;;10481110;28;20154;-62
2022/10/29 06:58:36;;;;;;;44.58;12.27;;;18.00;69.10;;;;;;10483762;28;20364;-61
2022/10/29 07:03:37;;;;;;;36.53;10.45;;;18.00;69.00;;;;;;10468248;28;20108;-64
2022/10/29 07:08:37;;;;;;;35.65;10.07;;;18.00;68.90;;;;;;10466926;28;20054;-63
2022/10/29 07:13:38;;;;;;;36.75;10.30;;;18.00;69.10;;;;;;10464056;28;20060;-62
2022/10/29 07:18:39;;;;;;;37.20;10.32;;;18.00;69.30;;;;;;10484656;28;20038;-62
2022/10/29 07:23:39;;;;;;;50.00;11.27;;;18.00;69.70;;;;;;10485513;28;20055;-62
2022/10/29 07:28:40;;;;;;;48.20;11.95;;;18.00;70.00;;;;;;10467787;28;20052;-62
2022/10/29 07:33:41;;;;;;;73.75;13.07;;;18.00;70.00;;;;;;10467132;28;20096;-62
2022/10/29 07:38:41;;;;;;;45.08;11.07;;;18.00;70.10;;;;;;10472751;28;20096;-62
2022/10/29 07:43:42;;;;;;;41.25;11.68;;;18.00;70.60;;;;;;10467085;28;20048;-62
2022/10/29 07:48:43;;;;;;;26.65;9.60;;;18.10;70.50;;;;;;10481008;28;20596;-64
2022/10/29 07:53:43;;;;;;;46.17;12.45;;;18.00;70.40;;;;;;10463514;28;20021;-62
2022/10/29 07:58:44;;;;;;;48.30;11.10;;;18.00;71.70;;;;;;10439567;28;20111;-61
2022/10/29 08:03:45;;;;;;;44.00;11.63;;;18.00;71.20;;;;;;10480506;28;20044;-62
2022/10/29 08:08:45;;;;;;;39.13;9.98;;;18.00;71.00;;;;;;10460132;28;20013;-61
2022/10/29 08:13:48;;;;;;;34.55;9.80;;;18.00;71.40;;;;;;10478962;28;20039;-61
2022/10/29 08:18:48;;;;;;;31.23;10.07;;;18.00;71.10;;;;;;10450870;28;20017;-61
2022/10/29 08:23:49;;;;;;;35.35;9.80;;;18.00;71.10;;;;;;10492592;28;20021;-63
2022/10/29 08:28:50;;;;;;;35.13;8.77;;;18.00;71.50;;;;;;10464152;28;20029;-65
2022/10/29 08:33:50;;;;;;;27.65;9.10;;;18.00;71.40;;;;;;10467796;28;20020;-65
2022/10/29 08:38:51;;;;;;;26.08;8.90;;;18.10;71.40;;;;;;10485693;28;20040;-65
2022/10/29 08:44:18;;;;;;;30.35;9.88;;;18.10;71.50;;;;;;10482545;28;20017;-65
2022/10/29 08:49:26;;;;;;;24.50;9.13;;;18.10;71.60;;;;;;10469100;28;20112;-65
2022/10/29 08:54:30;;;;;;;26.60;7.13;;;18.00;71.60;;;;;;10465622;28;20025;-65
2022/10/29 08:59:39;;;;;;;25.75;8.30;;;18.10;71.70;;;;;;10466953;28;20028;-65
2022/10/29 09:04:39;;;;;;;25.55;8.15;;;18.10;71.70;;;;;;10471440;28;20031;-65
2022/10/29 09:10:15;;;;;;;17.63;7.50;;;18.10;71.70;;;;;;10434867;28;20013;-65
2022/10/29 09:15:52;;;;;;;28.13;7.47;;;18.10;71.70;;;;;;10474874;28;20040;-65
2022/10/29 09:21:17;;;;;;;18.42;8.80;;;18.10;71.80;;;;;;10489823;28;20027;-64
2022/10/29 09:26:39;;;;;;;30.20;9.25;;;18.10;71.90;;;;;;10490497;28;20499;-65
2022/10/29 09:31:49;;;;;;;25.90;7.68;;;18.00;72.10;;;;;;10471547;28;20115;-65
2022/10/29 09:36:49;;;;;;;17.63;8.15;;;18.00;72.20;;;;;;10461230;28;20541;-65
2022/10/29 09:41:53;;;;;;;24.17;7.97;;;18.00;72.40;;;;;;10482942;28;20056;-65
2022/10/29 09:47:24;;;;;;;20.17;8.10;;;18.00;73.50;;;;;;10475002;28;20496;-63
2022/10/29 09:52:32;;;;;;;24.98;8.60;;;18.10;73.60;;;;;;10480838;28;20055;-65
2022/10/29 09:57:35;;;;;;;25.80;7.93;;;18.10;73.60;;;;;;10493119;28;20041;-64
2022/10/29 10:02:55;;;;;;;15.80;7.47;;;18.10;73.20;;;;;;10482449;28;20036;-62
2022/10/29 10:08:12;;;;;;;20.85;7.43;;;18.00;73.00;;;;;;10456297;28;20035;-64
2022/10/29 10:13:13;;;;;;;17.85;8.45;;;18.00;73.10;;;;;;10490787;28;20037;-64
2022/10/29 10:18:23;;;;;;;18.02;7.18;;;18.00;73.20;;;;;;10456036;28;20017;-64
2022/10/29 10:23:43;;;;;;;19.63;8.18;;;18.00;73.40;;;;;;10456640;28;20025;-64
2022/10/29 10:28:43;;;;;;;27.88;9.20;;;18.00;73.30;;;;;;10463950;28;20052;-64
2022/10/29 10:33:53;;;;;;;15.38;6.28;;;17.90;73.50;;;;;;10450489;28;20066;-64
2022/10/29 10:38:59;;;;;;;16.30;7.10;;;18.00;73.40;;;;;;10469243;28;20063;-64
2022/10/29 10:44:03;;;;;;;12.30;5.88;;;18.00;73.30;;;;;;10455652;28;20019;-63
2022/10/29 10:49:15;;;;;;;19.33;7.97;;;18.10;73.10;;;;;;10444662;28;20025;-64
2022/10/29 10:54:32;;;;;;;17.65;7.47;;;18.20;73.20;;;;;;10449083;28;20025;-64
2022/10/29 11:00:06;;;;;;;14.15;6.18;;;18.20;73.40;;;;;;10471384;28;20021;-63
2022/10/29 11:05:24;;;;;;;14.15;6.70;;;18.20;73.10;;;;;;10453968;28;20029;-65
2022/10/29 11:10:42;;;;;;;15.73;6.60;;;18.10;73.10;;;;;;10458974;28;20033;-63
2022/10/29 11:16:27;;;;;;;13.80;6.70;;;18.10;73.40;;;;;;10479540;28;20630;-63
2022/10/29 11:21:35;;;;;;;22.33;7.13;;;18.20;73.30;;;;;;10479797;28;20342;-64
2022/10/29 11:27:10;;;;;;;12.47;7.27;;;18.20;73.60;;;;;;10462551;28;20097;-63
2022/10/29 11:32:28;;;;;;;11.65;6.63;;;18.20;73.70;;;;;;10476949;28;20083;-63
2022/10/29 11:38:17;;;;;;;16.95;7.95;;;18.20;73.90;;;;;;10485027;28;20024;-64
2022/10/29 11:43:20;;;;;;;16.65;8.00;;;18.30;74.00;;;;;;10446830;28;20063;-63
2022/10/29 11:48:59;;;;;;;19.10;7.07;;;18.30;74.20;;;;;;10470395;28;20009;-63
2022/10/29 11:54:02;;;;;;;23.83;8.07;;;18.40;74.30;;;;;;10493870;28;20051;-62
2022/10/29 12:00:01;;;;;;;32.58;9.48;;;18.40;74.30;;;;;;10488455;28;20016;-62
2022/10/29 12:05:32;;;;;;;39.97;11.57;;;18.50;76.00;;;;;;10441932;28;20548;-62
2022/10/29 12:10:49;;;;;;;36.78;10.48;;;18.50;74.70;;;;;;10439384;28;20055;-62
2022/10/29 12:16:16;;;;;;;66.93;17.20;;;18.40;74.90;;;;;;10493234;28;20102;-63
2022/10/29 12:21:41;;;;;;;58.70;14.38;;;18.40;75.60;;;;;;10492373;28;20027;-62
2022/10/29 12:26:49;;;;;;;56.53;14.73;;;18.50;74.80;;;;;;10470148;28;20053;-63
2022/10/29 12:32:31;;;;;;;45.38;14.75;;;18.60;73.40;;;;;;10475983;28;20028;-62
2022/10/29 12:37:51;;;;;;;33.03;12.05;;;18.70;72.70;;;;;;10423937;28;20028;-63
2022/10/29 12:42:54;;;;;;;30.63;9.20;;;18.80;71.80;;;;;;10469611;28;20103;-63
2022/10/29 12:48:27;;;;;;;27.50;8.80;;;18.90;71.10;;;;;;10464637;28;20484;-62
2022/10/29 12:53:39;;;;;;;19.70;8.23;;;19.00;70.50;;;;;;10458061;28;20025;-64
2022/10/29 12:58:58;;;;;;;18.73;8.13;;;19.00;70.00;;;;;;10471304;28;20017;-62
2022/10/29 13:04:03;;;;;;;20.07;8.40;;;19.00;69.60;;;;;;10469062;28;20075;-62
2022/10/29 13:09:22;;;;;;;20.27;7.40;;;19.00;69.30;;;;;;10452655;28;20029;-62
2022/10/29 13:14:48;;;;;;;15.60;7.40;;;19.10;68.90;;;;;;10476892;28;20420;-63
2022/10/29 13:19:59;;;;;;;15.75;7.13;;;19.10;68.60;;;;;;10484616;28;20441;-62
2022/10/29 13:25:37;;;;;;;16.88;7.65;;;19.10;68.40;;;;;;10445506;28;20149;-63
2022/10/29 13:30:44;;;;;;;17.08;5.85;;;19.10;68.20;;;;;;10450320;28;20079;-63
2022/10/29 13:35:50;;;;;;;19.75;9.25;;;19.10;68.00;;;;;;10489313;28;20112;-61
2022/10/29 13:41:03;;;;;;;15.57;6.97;;;19.10;67.80;;;;;;10489445;28;20113;-61
2022/10/29 13:46:12;;;;;;;16.52;7.82;;;19.20;67.90;;;;;;10484304;28;20085;-61
2022/10/29 13:51:21;;;;;;;15.52;6.78;;;19.20;67.60;;;;;;10491322;28;20028;-61
2022/10/29 13:56:38;;;;;;;17.15;6.82;;;19.20;67.50;;;;;;10489665;28;20052;-61
2022/10/29 14:01:44;;;;;;;21.38;6.97;;;19.20;67.40;;;;;;10454451;28;20021;-61
2022/10/29 14:06:46;;;;;;;22.85;7.45;;;19.20;67.50;;;;;;10480724;28;20024;-61
2022/10/29 14:11:59;;;;;;;12.27;6.22;;;19.10;67.60;;;;;;10482436;28;20086;-61
2022/10/29 14:17:16;;;;;;;18.80;8.93;;;19.10;67.30;;;;;;10488461;28;20371;-62
2022/10/29 14:22:34;;;;;;;17.40;7.03;;;19.10;67.40;;;;;;10487886;28;20670;-61
2022/10/29 14:27:35;;;;;;;15.68;6.60;;;19.10;67.30;;;;;;10476120;28;20115;-61
2022/10/29 14:32:39;;;;;;;17.67;7.63;;;19.20;67.30;;;;;;10462493;28;20044;-61
2022/10/29 14:37:42;;;;;;;19.42;7.95;;;19.10;67.50;;;;;;10486927;28;20085;-61
2022/10/29 14:42:47;;;;;;;17.05;6.85;;;19.10;67.30;;;;;;10486497;28;20055;-61
2022/10/29 14:47:55;;;;;;;18.90;7.50;;;19.10;67.20;;;;;;10442442;28;20063;-62
2022/10/29 14:53:24;;;;;;;19.38;7.78;;;19.10;67.00;;;;;;10485080;28;20028;-61
2022/10/29 14:58:34;;;;;;;21.35;7.57;;;19.10;66.80;;;;;;10470719;28;20052;-61
2022/10/29 15:03:35;;;;;;;13.85;6.28;;;19.10;66.60;;;;;;10480755;28;20025;-61
2022/10/29 15:08:41;;;;;;;15.27;6.40;;;19.10;66.40;;;;;;10469379;28;20431;-61
2022/10/29 15:13:45;;;;;;;14.18;6.32;;;19.10;66.30;;;;;;10456459;28;20407;-61
2022/10/29 15:18:49;;;;;;;20.35;7.88;;;19.10;66.20;;;;;;10476171;28;20656;-60
2022/10/29 15:24:09;;;;;;;11.98;6.10;;;19.10;66.20;;;;;;10471951;28;20047;-61
2022/10/29 15:29:11;;;;;;;14.00;7.50;;;19.10;66.20;;;;;;10475187;28;20048;-61
2022/10/29 15:34:33;;;;;;;17.77;7.18;;;19.10;66.00;;;;;;10476689;28;20016;-60
2022/10/29 15:39:56;;;;;;;19.90;7.80;;;19.10;66.00;;;;;;10493582;28;20020;-61
2022/10/29 15:45:13;;;;;;;18.85;7.63;;;19.10;66.10;;;;;;10453889;28;20025;-60
2022/10/29 15:50:39;;;;;;;12.77;6.82;;;19.10;65.90;;;;;;10474846;28;20029;-60
2022/10/29 15:55:41;;;;;;;19.52;7.78;;;19.10;65.50;;;;;;10474783;28;20074;-61
2022/10/29 16:00:42;;;;;;;13.45;6.65;;;19.10;65.60;;;;;;10474598;28;20021;-60
2022/10/29 16:05:46;;;;;;;21.52;9.13;;;19.20;66.90;;;;;;10488834;28;20028;-61
2022/10/29 16:10:47;;;;;;;23.10;9.88;;;19.30;73.90;;;;;;10482763;28;20460;-61
2022/10/29 16:15:48;;;;;;;28.48;9.65;;;19.40;74.80;;;;;;10474276;28;20017;-60
2022/10/29 16:20:59;;;;;;;22.83;10.23;;;19.50;76.40;;;;;;10486896;28;20025;-59
2022/10/29 16:26:00;;;;;;;29.65;9.20;;;19.50;75.70;;;;;;10464087;28;20021;-59
2022/10/29 16:31:00;;;;;;;20.92;9.27;;;19.60;74.40;;;;;;10489737;28;20115;-63
2022/10/29 16:36:01;;;;;;;27.80;10.23;;;19.60;75.30;;;;;;10454810;28;20033;-61
2022/10/29 16:41:01;;;;;;;30.65;11.73;;;19.60;75.30;;;;;;10468227;28;20066;-61
2022/10/29 16:46:02;;;;;;;23.45;10.60;;;19.70;77.20;;;;;;10473381;28;20063;-61
2022/10/29 16:51:04;;;;;;;28.70;11.00;;;19.70;77.60;;;;;;10486564;28;20668;-60
2022/10/29 16:56:05;;;;;;;36.10;11.95;;;20.00;76.40;;;;;;10473869;28;20032;-61
2022/10/29 17:01:09;;;;;;;38.40;13.95;;;19.90;77.20;;;;;;10473770;28;20403;-62
2022/10/29 17:06:10;;;;;;;33.65;11.15;;;19.80;77.10;;;;;;10474249;28;20036;-64
2022/10/29 17:11:10;;;;;;;32.55;11.57;;;19.80;77.00;;;;;;10465884;28;20022;-62
2022/10/29 17:16:15;;;;;;;42.20;12.25;;;19.70;76.90;;;;;;10487126;28;20032;-62
2022/10/29 17:21:16;;;;;;;70.85;17.10;;;19.70;76.50;;;;;;10486096;28;20021;-63
2022/10/29 17:26:17;;;;;;;54.53;13.73;;;19.70;76.40;;;;;;10486568;28;20049;-66
2022/10/29 17:31:17;;;;;;;51.38;12.40;;;19.60;76.60;;;;;;10487521;28;20043;-61
2022/10/29 17:36:18;;;;;;;54.03;13.88;;;19.40;76.90;;;;;;10484600;28;20100;-61
2022/10/29 17:41:19;;;;;;;41.40;13.77;;;19.30;77.30;;;;;;10464942;28;20024;-61
2022/10/29 17:46:20;;;;;;;38.10;12.07;;;19.20;77.30;;;;;;10474217;28;20027;-62
2022/10/29 17:51:21;;;;;;;35.08;11.80;;;19.10;77.50;;;;;;10473857;28;20068;-62
2022/10/29 17:56:22;;;;;;;30.25;10.68;;;19.10;77.60;;;;;;10459450;28;20021;-63
2022/10/29 18:01:23;;;;;;;36.60;11.95;;;19.00;77.60;;;;;;10488159;28;20052;-61
2022/10/29 18:06:24;;;;;;;34.05;11.88;;;19.00;77.60;;;;;;10470080;28;20100;-61
2022/10/29 18:11:25;;;;;;;32.10;10.68;;;19.00;77.60;;;;;;10463595;28;20052;-62
2022/10/29 18:16:28;;;;;;;26.48;10.63;;;19.00;77.20;;;;;;10457417;28;20451;-62
2022/10/29 18:21:30;;;;;;;28.25;10.45;;;18.90;77.50;;;;;;10445850;28;20365;-62
2022/10/29 18:26:33;;;;;;;23.98;10.85;;;18.90;78.00;;;;;;10462825;28;20044;-62
2022/10/29 18:31:36;;;;;;;36.10;11.73;;;18.90;77.50;;;;;;10476036;28;20548;-62
2022/10/29 18:36:40;;;;;;;26.67;10.70;;;18.90;77.30;;;;;;10476730;28;20021;-64
2022/10/29 18:41:41;;;;;;;26.45;10.75;;;18.90;77.20;;;;;;10462191;28;20476;-64
2022/10/29 18:46:42;;;;;;;24.95;11.40;;;18.90;77.10;;;;;;10482934;28;20063;-63
2022/10/29 18:51:42;;;;;;;35.92;10.60;;;18.90;77.30;;;;;;10484295;28;20120;-61
2022/10/29 18:56:43;;;;;;;34.75;11.18;;;18.90;77.00;;;;;;10485442;28;20012;-62
2022/10/29 19:01:43;;;;;;;26.88;9.85;;;18.90;77.10;;;;;;10486222;28;20027;-61
2022/10/29 19:06:44;;;;;;;33.83;10.07;;;18.90;77.10;;;;;;10486500;28;20058;-63
2022/10/29 19:11:48;;;;;;;19.98;9.82;;;18.90;77.10;;;;;;10468678;28;20111;-62
2022/10/29 19:16:49;;;;;;;28.27;9.23;;;18.90;77.10;;;;;;10478983;28;20667;-62
2022/10/29 19:21:50;;;;;;;29.83;10.95;;;18.90;77.10;;;;;;10484925;28;20111;-63
2022/10/29 19:26:50;;;;;;;19.30;8.93;;;18.90;77.00;;;;;;10478490;28;20069;-62
2022/10/29 19:31:51;;;;;;;22.58;9.65;;;18.80;76.90;;;;;;10463500;28;20127;-61
2022/10/29 19:36:52;;;;;;;21.05;10.88;;;18.80;76.90;;;;;;10484656;28;20088;-62
2022/10/29 19:41:52;;;;;;;19.95;8.82;;;18.90;77.00;;;;;;10470568;28;20174;-62
2022/10/29 19:46:53;;;;;;;17.10;8.55;;;18.90;77.10;;;;;;10482435;28;20052;-61
2022/10/29 19:51:56;;;;;;;23.30;10.27;;;18.80;77.00;;;;;;10482529;28;20521;-62
2022/10/29 19:56:56;;;;;;;18.90;10.02;;;18.80;76.90;;;;;;10481892;28;20020;-62
2022/10/29 20:01:57;;;;;;;17.92;8.18;;;18.90;77.10;;;;;;10469684;28;20495;-62
2022/10/29 20:06:57;;;;;;;24.67;8.63;;;18.80;77.00;;;;;;10478341;28;20114;-62
2022/10/29 20:11:58;;;;;;;19.08;8.38;;;18.80;77.10;;;;;;10459905;28;20047;-63
2022/10/29 20:16:59;;;;;;;18.38;8.43;;;18.80;76.80;;;;;;10483652;28;20103;-62
2022/10/29 20:21:59;;;;;;;18.58;9.13;;;18.80;76.70;;;;;;10473378;28;20053;-62
2022/10/29 20:27:00;;;;;;;16.92;8.07;;;18.80;76.60;;;;;;10451315;28;20502;-62
2022/10/29 20:32:01;;;;;;;13.38;8.35;;;18.80;76.40;;;;;;10504765;28;20166;-62
2022/10/29 20:37:01;;;;;;;16.38;8.57;;;18.80;76.40;;;;;;10485582;28;20116;-65
2022/10/29 20:42:02;;;;;;;16.05;8.02;;;18.80;76.30;;;;;;10490281;28;20435;-61
2022/10/29 20:47:03;;;;;;;18.00;8.90;;;18.70;76.20;;;;;;10453363;28;20025;-62
2022/10/29 20:52:05;;;;;;;12.23;7.80;;;18.80;76.20;;;;;;10465830;28;20033;-62
2022/10/29 20:57:06;;;;;;;12.90;8.18;;;18.70;76.00;;;;;;10452052;28;20032;-62
2022/10/29 21:02:09;;;;;;;11.05;6.80;;;18.70;75.90;;;;;;10440332;28;20553;-62
2022/10/29 21:07:10;;;;;;;12.52;7.22;;;18.80;76.00;;;;;;10469274;28;20025;-63
2022/10/29 21:12:11;;;;;;;18.15;9.02;;;18.70;75.80;;;;;;10449593;28;20060;-62
2022/10/29 21:17:12;;;;;;;11.27;7.10;;;18.70;75.80;;;;;;10449522;28;20049;-62
2022/10/29 21:22:13;;;;;;;13.32;7.35;;;18.70;75.70;;;;;;10472461;28;20020;-62
2022/10/29 21:27:14;;;;;;;12.32;6.75;;;18.70;75.70;;;;;;10472454;28;20127;-62
2022/10/29 21:32:15;;;;;;;19.58;6.97;;;18.70;75.60;;;;;;10477685;28;20024;-62
2022/10/29 21:37:15;;;;;;;10.18;6.50;;;18.70;75.60;;;;;;10473763;28;20020;-61
2022/10/29 21:42:16;;;;;;;9.93;6.47;;;18.70;75.50;;;;;;10487983;28;20119;-62
2022/10/29 21:47:17;;;;;;;9.80;6.35;;;18.70;75.50;;;;;;10489985;28;20112;-61
2022/10/29 21:52:17;;;;;;;14.23;6.88;;;18.70;75.40;;;;;;10470916;28;20555;-62
2022/10/29 21:57:18;;;;;;;8.68;6.40;;;18.70;75.60;;;;;;10489106;28;20105;-61
2022/10/29 22:02:19;;;;;;;14.13;7.68;;;18.70;75.80;;;;;;10457000;28;20141;-61
2022/10/29 22:07:19;;;;;;;14.60;7.28;;;18.70;75.90;;;;;;10473521;28;20435;-61
2022/10/29 22:12:20;;;;;;;14.63;9.25;;;18.70;75.40;;;;;;10479992;28;20033;-62
2022/10/29 22:17:21;;;;;;;9.32;6.43;;;18.70;75.20;;;;;;10462602;28;20453;-62
2022/10/29 22:22:22;;;;;;;14.73;7.25;;;18.70;75.20;;;;;;10447487;28;20025;-63
2022/10/29 22:27:22;;;;;;;9.15;6.35;;;18.60;75.10;;;;;;10470511;28;20049;-62
2022/10/29 22:32:23;;;;;;;13.38;7.68;;;18.60;75.00;;;;;;10466086;28;20128;-62
2022/10/29 22:37:24;;;;;;;10.55;6.60;;;18.60;75.00;;;;;;10486936;28;20016;-61
2022/10/29 22:42:24;;;;;;;10.60;6.45;;;18.60;75.00;;;;;;10472292;28;20060;-62
2022/10/29 22:47:25;;;;;;;11.35;6.35;;;18.60;75.00;;;;;;10476079;28;20481;-62
2022/10/29 22:52:26;;;;;;;12.23;6.60;;;18.60;74.90;;;;;;10487894;28;20035;-62
2022/10/29 22:57:26;;;;;;;8.50;6.38;;;18.60;75.00;;;;;;10469639;28;20055;-63
2022/10/29 23:02:27;;;;;;;8.98;6.50;;;18.60;74.90;;;;;;10450702;28;20111;-62
2022/10/29 23:07:27;;;;;;;13.27;6.93;;;18.60;74.90;;;;;;10469476;28;20439;-62
2022/10/29 23:12:29;;;;;;;8.15;5.53;;;18.60;74.90;;;;;;10452663;28;20064;-62
2022/10/29 23:17:29;;;;;;;12.88;6.28;;;18.60;74.80;;;;;;10451003;28;20037;-62
2022/10/29 23:22:30;;;;;;;12.00;6.88;;;18.60;74.80;;;;;;10469516;28;20016;-62
2022/10/29 23:27:30;;;;;;;10.35;6.90;;;18.60;74.80;;;;;;10486203;28;20076;-61
2022/10/29 23:32:31;;;;;;;7.65;6.63;;;18.60;74.80;;;;;;10469139;28;20067;-62
2022/10/29 23:37:32;;;;;;;11.25;6.35;;;18.60;74.80;;;;;;10485994;28;20105;-61
2022/10/29 23:42:32;;;;;;;10.52;5.68;;;18.60;74.80;;;;;;10484769;28;20052;-62
2022/10/29 23:47:33;;;;;;;8.32;5.97;;;18.60;74.80;;;;;;10467388;28;20535;-61
2022/10/29 23:52:34;;;;;;;8.73;6.88;;;18.60;74.80;;;;;;10458959;28;20112;-61
2022/10/29 23:57:34;;;;;;;8.68;5.97;;;18.50;74.70;;;;;;10474170;28;20099;-62
